sensor_id;sensor_type;location;lat;lon;timestamp;pressure;altitude;pressure_sealevel;temperature;humidity
6506;BME280;3286;49.858;8.768;2023-07-22T00:00:28;99096.06;;;18.89;49.59
6506;BME280;3286;49.858;8.768;2023-07-22T00:02:56;99096.06;;;19.09;49.90
6506;BME280;3286;49.858;8.768;2023-07-22T00:05:23;99096.06;;;19.09;49.81
6506;BME280;3286;49.858;8.768;2023-07-22T00:07:50;99094.56;;;19.34;48.45
6506;BME280;3286;49.858;8.768;2023-07-22T00:10:18;99096.34;;;19.53;47.17
6506;BME280;3286;49.858;8.768;2023-07-22T00:12:44;99091.50;;;18.96;48.66
6506;BME280;3286;49.858;8.768;2023-07-22T00:15:11;99090.09;;;19.01;48.46
6506;BME280;3286;49.858;8.768;2023-07-22T00:17:38;99096.28;;;18.74;49.20
6506;BME280;3286;49.858;8.768;2023-07-22T00:20:08;99092.97;;;18.92;48.90
6506;BME280;3286;49.858;8.768;2023-07-22T00:22:36;99096.69;;;19.05;48.98
6506;BME280;3286;49.858;8.768;2023-07-22T00:25:03;99101.81;;;18.52;49.97
6506;BME280;3286;49.858;8.768;2023-07-22T00:27:30;99104.91;;;19.23;49.01
6506;BME280;3286;49.858;8.768;2023-07-22T00:29:57;99099.91;;;19.34;48.57
6506;BME280;3286;49.858;8.768;2023-07-22T00:32:23;99112.75;;;19.11;49.10
6506;BME280;3286;49.858;8.768;2023-07-22T00:34:50;99111.91;;;19.24;49.00
6506;BME280;3286;49.858;8.768;2023-07-22T00:37:18;99110.69;;;19.07;49.00
6506;BME280;3286;49.858;8.768;2023-07-22T00:39:45;99111.91;;;18.84;49.79
6506;BME280;3286;49.858;8.768;2023-07-22T00:42:11;99106.16;;;19.01;49.82
6506;BME280;3286;49.858;8.768;2023-07-22T00:44:38;99103.19;;;19.43;48.17
6506;BME280;3286;49.858;8.768;2023-07-22T00:47:05;99101.81;;;19.13;49.00
6506;BME280;3286;49.858;8.768;2023-07-22T00:49:33;99113.13;;;19.22;48.62
6506;BME280;3286;49.858;8.768;2023-07-22T00:52:02;99095.84;;;19.11;48.74
6506;BME280;3286;49.858;8.768;2023-07-22T00:54:30;99102.44;;;19.02;49.41
6506;BME280;3286;49.858;8.768;2023-07-22T00:56:57;99091.88;;;19.34;48.10
6506;BME280;3286;49.858;8.768;2023-07-22T00:59:24;99099.75;;;19.15;49.08
6506;BME280;3286;49.858;8.768;2023-07-22T01:01:51;99101.22;;;18.98;49.19
6506;BME280;3286;49.858;8.768;2023-07-22T01:04:19;99098.13;;;19.07;49.02
6506;BME280;3286;49.858;8.768;2023-07-22T01:06:48;99091.94;;;18.73;50.17
6506;BME280;3286;49.858;8.768;2023-07-22T01:09:15;99095.84;;;19.18;48.99
6506;BME280;3286;49.858;8.768;2023-07-22T01:11:44;99092.78;;;18.60;50.37
6506;BME280;3286;49.858;8.768;2023-07-22T01:14:10;99093.19;;;19.04;48.97
6506;BME280;3286;49.858;8.768;2023-07-22T01:16:37;99085.78;;;18.59;50.00
6506;BME280;3286;49.858;8.768;2023-07-22T01:19:04;99088.03;;;18.69;49.56
6506;BME280;3286;49.858;8.768;2023-07-22T01:21:32;99092.53;;;18.95;49.28
6506;BME280;3286;49.858;8.768;2023-07-22T01:24:01;99100.16;;;18.24;50.81
6506;BME280;3286;49.858;8.768;2023-07-22T01:26:27;99102.63;;;18.46;50.92
6506;BME280;3286;49.858;8.768;2023-07-22T01:29:02;99095.63;;;18.45;50.46
6506;BME280;3286;49.858;8.768;2023-07-22T01:31:29;99096.03;;;18.56;49.68
6506;BME280;3286;49.858;8.768;2023-07-22T01:33:56;99088.03;;;18.56;49.97
6506;BME280;3286;49.858;8.768;2023-07-22T01:36:24;99100.38;;;18.36;50.10
6506;BME280;3286;49.858;8.768;2023-07-22T01:38:50;99097.69;;;17.67;52.04
6506;BME280;3286;49.858;8.768;2023-07-22T01:41:18;99099.53;;;18.22;50.06
6506;BME280;3286;49.858;8.768;2023-07-22T01:43:45;99100.09;;;18.04;50.29
6506;BME280;3286;49.858;8.768;2023-07-22T01:46:12;99104.50;;;18.46;49.85
6506;BME280;3286;49.858;8.768;2023-07-22T01:48:38;99098.50;;;18.30;49.91
6506;BME280;3286;49.858;8.768;2023-07-22T01:51:05;99094.41;;;18.48;49.13
6506;BME280;3286;49.858;8.768;2023-07-22T01:53:32;99094.31;;;18.01;50.46
6506;BME280;3286;49.858;8.768;2023-07-22T01:55:59;99094.59;;;18.19;50.50
6506;BME280;3286;49.858;8.768;2023-07-22T01:58:27;99097.25;;;17.64;51.73
6506;BME280;3286;49.858;8.768;2023-07-22T02:00:54;99094.38;;;17.59;51.93
6506;BME280;3286;49.858;8.768;2023-07-22T02:03:20;99093.22;;;17.75;51.47
6506;BME280;3286;49.858;8.768;2023-07-22T02:05:48;99084.00;;;17.98;51.11
6506;BME280;3286;49.858;8.768;2023-07-22T02:08:15;99089.41;;;18.11;50.76
6506;BME280;3286;49.858;8.768;2023-07-22T02:10:41;99087.94;;;17.95;51.38
6506;BME280;3286;49.858;8.768;2023-07-22T02:13:08;99085.34;;;17.66;51.80
6506;BME280;3286;49.858;8.768;2023-07-22T02:15:37;99083.91;;;17.64;52.21
6506;BME280;3286;49.858;8.768;2023-07-22T02:18:04;99083.88;;;17.57;52.28
6506;BME280;3286;49.858;8.768;2023-07-22T02:20:31;99079.63;;;17.76;51.91
6506;BME280;3286;49.858;8.768;2023-07-22T02:22:57;99081.72;;;17.88;51.19
6506;BME280;3286;49.858;8.768;2023-07-22T02:25:24;99071.56;;;17.21;53.05
6506;BME280;3286;49.858;8.768;2023-07-22T02:27:51;99083.91;;;17.22;53.30
6506;BME280;3286;49.858;8.768;2023-07-22T02:30:17;99089.66;;;16.69;54.59
6506;BME280;3286;49.858;8.768;2023-07-22T02:32:46;99084.78;;;16.50;54.90
6506;BME280;3286;49.858;8.768;2023-07-22T02:35:12;99086.97;;;16.90;54.02
6506;BME280;3286;49.858;8.768;2023-07-22T02:37:39;99081.31;;;17.00;52.66
6506;BME280;3286;49.858;8.768;2023-07-22T02:40:06;99079.50;;;17.43;53.07
6506;BME280;3286;49.858;8.768;2023-07-22T02:42:36;99081.16;;;17.50;51.77
6506;BME280;3286;49.858;8.768;2023-07-22T02:45:03;99082.44;;;17.61;51.58
6506;BME280;3286;49.858;8.768;2023-07-22T02:47:29;99098.53;;;16.98;53.01
6506;BME280;3286;49.858;8.768;2023-07-22T02:49:58;99090.19;;;16.57;54.10
6506;BME280;3286;49.858;8.768;2023-07-22T02:52:24;99090.78;;;16.53;54.60
6506;BME280;3286;49.858;8.768;2023-07-22T02:55:16;99083.31;;;16.70;54.59
6506;BME280;3286;49.858;8.768;2023-07-22T02:57:46;99096.22;;;17.16;52.92
6506;BME280;3286;49.858;8.768;2023-07-22T03:00:14;99092.59;;;16.30;55.47
6506;BME280;3286;49.858;8.768;2023-07-22T03:02:45;99105.41;;;15.98;56.20
6506;BME280;3286;49.858;8.768;2023-07-22T03:05:14;99097.69;;;16.03;55.03
6506;BME280;3286;49.858;8.768;2023-07-22T03:07:40;99097.03;;;16.01;55.57
6506;BME280;3286;49.858;8.768;2023-07-22T03:10:08;99103.44;;;15.55;57.20
6506;BME280;3286;49.858;8.768;2023-07-22T03:12:35;99106.25;;;16.20;55.61
6506;BME280;3286;49.858;8.768;2023-07-22T03:15:03;99111.28;;;15.93;56.59
6506;BME280;3286;49.858;8.768;2023-07-22T03:17:31;99108.84;;;15.92;56.09
6506;BME280;3286;49.858;8.768;2023-07-22T03:19:57;99112.19;;;15.86;55.83
6506;BME280;3286;49.858;8.768;2023-07-22T03:22:25;99107.31;;;16.26;54.99
6506;BME280;3286;49.858;8.768;2023-07-22T03:24:52;99107.69;;;16.01;56.32
6506;BME280;3286;49.858;8.768;2023-07-22T03:27:19;99110.28;;;15.95;56.04
6506;BME280;3286;49.858;8.768;2023-07-22T03:29:46;99114.03;;;15.85;55.82
6506;BME280;3286;49.858;8.768;2023-07-22T03:32:13;99112.63;;;15.53;56.18
6506;BME280;3286;49.858;8.768;2023-07-22T03:34:40;99124.34;;;15.28;56.62
6506;BME280;3286;49.858;8.768;2023-07-22T03:37:06;99122.97;;;15.77;55.97
6506;BME280;3286;49.858;8.768;2023-07-22T03:39:43;99121.78;;;15.65;56.43
6506;BME280;3286;49.858;8.768;2023-07-22T03:42:09;99119.47;;;15.77;56.44
6506;BME280;3286;49.858;8.768;2023-07-22T03:44:36;99122.72;;;15.42;56.53
6506;BME280;3286;49.858;8.768;2023-07-22T03:47:03;99120.66;;;15.74;55.41
6506;BME280;3286;49.858;8.768;2023-07-22T03:49:30;99130.06;;;15.40;56.59
6506;BME280;3286;49.858;8.768;2023-07-22T03:51:56;99115.22;;;15.83;55.38
6506;BME280;3286;49.858;8.768;2023-07-22T03:54:23;99119.00;;;16.03;54.60
6506;BME280;3286;49.858;8.768;2023-07-22T03:56:51;99123.81;;;15.93;55.27
6506;BME280;3286;49.858;8.768;2023-07-22T03:59:18;99118.91;;;15.97;55.68
6506;BME280;3286;49.858;8.768;2023-07-22T04:01:44;99116.88;;;15.99;56.42
6506;BME280;3286;49.858;8.768;2023-07-22T04:04:12;99113.78;;;15.95;55.87
6506;BME280;3286;49.858;8.768;2023-07-22T04:06:38;99110.41;;;15.71;56.37
6506;BME280;3286;49.858;8.768;2023-07-22T04:09:05;99124.66;;;15.18;58.14
6506;BME280;3286;49.858;8.768;2023-07-22T04:11:32;99120.31;;;15.62;56.26
6506;BME280;3286;49.858;8.768;2023-07-22T04:14:00;99115.53;;;15.88;56.12
6506;BME280;3286;49.858;8.768;2023-07-22T04:16:26;99113.81;;;16.17;55.61
6506;BME280;3286;49.858;8.768;2023-07-22T04:18:53;99108.88;;;16.35;55.38
6506;BME280;3286;49.858;8.768;2023-07-22T04:21:20;99112.19;;;16.01;56.31
6506;BME280;3286;49.858;8.768;2023-07-22T04:23:47;99113.16;;;15.93;56.43
6506;BME280;3286;49.858;8.768;2023-07-22T04:26:14;99110.59;;;16.21;55.73
6506;BME280;3286;49.858;8.768;2023-07-22T04:28:41;99119.72;;;16.12;55.68
6506;BME280;3286;49.858;8.768;2023-07-22T04:31:09;99117.91;;;15.83;57.07
6506;BME280;3286;49.858;8.768;2023-07-22T04:33:36;99120.94;;;15.79;57.09
6506;BME280;3286;49.858;8.768;2023-07-22T04:36:03;99111.84;;;15.89;56.86
6506;BME280;3286;49.858;8.768;2023-07-22T04:38:29;99122.41;;;15.82;56.39
6506;BME280;3286;49.858;8.768;2023-07-22T04:40:56;99128.16;;;16.38;55.95
6506;BME280;3286;49.858;8.768;2023-07-22T04:43:22;99126.34;;;16.01;56.47
6506;BME280;3286;49.858;8.768;2023-07-22T04:45:51;99118.78;;;16.05;56.96
6506;BME280;3286;49.858;8.768;2023-07-22T04:48:20;99118.13;;;16.18;56.35
6506;BME280;3286;49.858;8.768;2023-07-22T04:50:47;99121.63;;;16.40;55.93
6506;BME280;3286;49.858;8.768;2023-07-22T04:53:13;99125.59;;;16.07;57.08
6506;BME280;3286;49.858;8.768;2023-07-22T04:55:40;99123.69;;;16.01;57.27
6506;BME280;3286;49.858;8.768;2023-07-22T04:58:07;99131.69;;;16.23;56.78
6506;BME280;3286;49.858;8.768;2023-07-22T05:00:35;99125.06;;;16.56;55.69
6506;BME280;3286;49.858;8.768;2023-07-22T05:03:03;99127.25;;;16.30;56.74
6506;BME280;3286;49.858;8.768;2023-07-22T05:05:32;99135.25;;;16.30;57.23
6506;BME280;3286;49.858;8.768;2023-07-22T05:07:58;99135.00;;;16.69;56.30
6506;BME280;3286;49.858;8.768;2023-07-22T05:10:25;99139.44;;;16.83;56.20
6506;BME280;3286;49.858;8.768;2023-07-22T05:12:54;99130.59;;;16.83;56.08
6506;BME280;3286;49.858;8.768;2023-07-22T05:15:22;99130.13;;;17.29;55.32
6506;BME280;3286;49.858;8.768;2023-07-22T05:17:48;99136.66;;;17.20;55.72
6506;BME280;3286;49.858;8.768;2023-07-22T05:20:15;99131.91;;;17.50;54.94
6506;BME280;3286;49.858;8.768;2023-07-22T05:22:43;99135.16;;;17.81;53.87
6506;BME280;3286;49.858;8.768;2023-07-22T05:25:10;99135.56;;;17.85;53.51
6506;BME280;3286;49.858;8.768;2023-07-22T05:27:37;99138.56;;;18.03;53.10
6506;BME280;3286;49.858;8.768;2023-07-22T05:30:04;99141.69;;;17.78;54.35
6506;BME280;3286;49.858;8.768;2023-07-22T05:32:31;99137.34;;;17.64;54.54
6506;BME280;3286;49.858;8.768;2023-07-22T05:34:58;99142.25;;;18.02;53.20
6506;BME280;3286;49.858;8.768;2023-07-22T05:37:25;99146.31;;;17.98;53.48
6506;BME280;3286;49.858;8.768;2023-07-22T05:39:53;99136.91;;;18.09;54.53
6506;BME280;3286;49.858;8.768;2023-07-22T05:42:20;99132.81;;;18.20;54.03
6506;BME280;3286;49.858;8.768;2023-07-22T05:44:47;99125.25;;;18.23;53.91
6506;BME280;3286;49.858;8.768;2023-07-22T05:47:14;99127.94;;;18.44;53.71
6506;BME280;3286;49.858;8.768;2023-07-22T05:49:41;99137.22;;;18.75;52.34
6506;BME280;3286;49.858;8.768;2023-07-22T05:52:07;99131.44;;;18.64;52.79
6506;BME280;3286;49.858;8.768;2023-07-22T05:54:34;99133.13;;;19.13;51.74
6506;BME280;3286;49.858;8.768;2023-07-22T05:57:02;99137.44;;;19.20;52.03
6506;BME280;3286;49.858;8.768;2023-07-22T05:59:29;99132.47;;;19.17;52.53
6506;BME280;3286;49.858;8.768;2023-07-22T06:01:56;99130.38;;;19.46;51.61
6506;BME280;3286;49.858;8.768;2023-07-22T06:04:23;99126.53;;;19.94;50.64
6506;BME280;3286;49.858;8.768;2023-07-22T06:06:49;99133.03;;;19.53;51.84
6506;BME280;3286;49.858;8.768;2023-07-22T06:09:16;99128.22;;;20.27;48.83
6506;BME280;3286;49.858;8.768;2023-07-22T06:11:43;99129.88;;;20.22;48.60
6506;BME280;3286;49.858;8.768;2023-07-22T06:14:11;99130.66;;;20.29;47.67
6506;BME280;3286;49.858;8.768;2023-07-22T06:16:37;99129.44;;;20.57;47.11
6506;BME280;3286;49.858;8.768;2023-07-22T06:19:04;99137.03;;;19.96;49.34
6506;BME280;3286;49.858;8.768;2023-07-22T06:21:31;99134.38;;;20.60;47.48
6506;BME280;3286;49.858;8.768;2023-07-22T06:23:57;99138.34;;;20.25;48.18
6506;BME280;3286;49.858;8.768;2023-07-22T06:26:24;99135.59;;;20.64;46.96
6506;BME280;3286;49.858;8.768;2023-07-22T06:28:51;99140.50;;;20.99;46.12
6506;BME280;3286;49.858;8.768;2023-07-22T06:31:19;99144.34;;;20.78;46.96
6506;BME280;3286;49.858;8.768;2023-07-22T06:33:46;99138.75;;;21.31;45.69
6506;BME280;3286;49.858;8.768;2023-07-22T06:36:13;99144.78;;;21.26;44.79
6506;BME280;3286;49.858;8.768;2023-07-22T06:38:41;99139.66;;;21.24;44.90
6506;BME280;3286;49.858;8.768;2023-07-22T06:41:08;99151.34;;;21.11;45.17
6506;BME280;3286;49.858;8.768;2023-07-22T06:43:35;99151.59;;;21.28;43.63
6506;BME280;3286;49.858;8.768;2023-07-22T06:46:02;99156.00;;;20.97;44.38
6506;BME280;3286;49.858;8.768;2023-07-22T06:48:30;99154.06;;;21.49;44.40
6506;BME280;3286;49.858;8.768;2023-07-22T06:50:56;99148.09;;;21.47;43.84
6506;BME280;3286;49.858;8.768;2023-07-22T06:53:23;99154.63;;;21.76;43.28
6506;BME280;3286;49.858;8.768;2023-07-22T06:55:50;99144.88;;;21.94;41.92
6506;BME280;3286;49.858;8.768;2023-07-22T06:58:17;99144.13;;;22.05;41.57
6506;BME280;3286;49.858;8.768;2023-07-22T07:00:43;99145.50;;;22.26;41.83
6506;BME280;3286;49.858;8.768;2023-07-22T07:03:10;99148.41;;;22.25;41.40
6506;BME280;3286;49.858;8.768;2023-07-22T07:05:38;99145.44;;;22.45;40.91
6506;BME280;3286;49.858;8.768;2023-07-22T07:08:07;99146.94;;;22.83;39.99
6506;BME280;3286;49.858;8.768;2023-07-22T07:10:37;99145.44;;;22.88;39.56
6506;BME280;3286;49.858;8.768;2023-07-22T07:13:03;99143.19;;;22.72;39.81
6506;BME280;3286;49.858;8.768;2023-07-22T07:15:30;99139.94;;;22.94;39.37
6506;BME280;3286;49.858;8.768;2023-07-22T07:17:57;99146.13;;;22.71;40.53
6506;BME280;3286;49.858;8.768;2023-07-22T07:20:23;99147.94;;;22.28;41.07
6506;BME280;3286;49.858;8.768;2023-07-22T07:22:51;99138.88;;;22.83;40.24
6506;BME280;3286;49.858;8.768;2023-07-22T07:25:18;99147.78;;;23.08;39.57
6506;BME280;3286;49.858;8.768;2023-07-22T07:27:45;99147.78;;;23.20;39.21
6506;BME280;3286;49.858;8.768;2023-07-22T07:30:11;99143.31;;;23.61;38.64
6506;BME280;3286;49.858;8.768;2023-07-22T07:32:38;99150.50;;;23.96;38.26
6506;BME280;3286;49.858;8.768;2023-07-22T07:35:06;99154.50;;;23.82;38.04
6506;BME280;3286;49.858;8.768;2023-07-22T07:37:33;99147.19;;;23.53;38.68
6506;BME280;3286;49.858;8.768;2023-07-22T07:40:01;99146.28;;;23.48;38.92
6506;BME280;3286;49.858;8.768;2023-07-22T07:42:28;99146.31;;;23.77;38.30
6506;BME280;3286;49.858;8.768;2023-07-22T07:44:55;99151.06;;;23.46;38.61
6506;BME280;3286;49.858;8.768;2023-07-22T07:47:22;99150.03;;;22.56;40.32
6506;BME280;3286;49.858;8.768;2023-07-22T07:49:48;99138.47;;;21.95;41.89
6506;BME280;3286;49.858;8.768;2023-07-22T07:52:15;99141.09;;;23.58;39.13
6506;BME280;3286;49.858;8.768;2023-07-22T07:54:42;99151.78;;;23.05;39.68
6506;BME280;3286;49.858;8.768;2023-07-22T07:57:10;99148.63;;;23.32;39.04
6506;BME280;3286;49.858;8.768;2023-07-22T07:59:36;99143.84;;;24.45;36.49
6506;BME280;3286;49.858;8.768;2023-07-22T08:02:03;99150.75;;;24.53;36.29
6506;BME280;3286;49.858;8.768;2023-07-22T08:04:34;99139.97;;;24.24;36.59
6506;BME280;3286;49.858;8.768;2023-07-22T08:07:00;99135.63;;;24.23;36.61
6506;BME280;3286;49.858;8.768;2023-07-22T08:09:30;99137.78;;;24.38;35.71
6506;BME280;3286;49.858;8.768;2023-07-22T08:11:56;99142.19;;;23.86;36.18
6506;BME280;3286;49.858;8.768;2023-07-22T08:14:24;99142.16;;;22.85;37.38
6506;BME280;3286;49.858;8.768;2023-07-22T08:16:51;99145.22;;;23.90;35.21
6506;BME280;3286;49.858;8.768;2023-07-22T08:19:18;99138.78;;;24.49;34.63
6506;BME280;3286;49.858;8.768;2023-07-22T08:21:44;99133.47;;;25.44;33.33
6506;BME280;3286;49.858;8.768;2023-07-22T08:24:11;99140.66;;;24.48;36.75
6506;BME280;3286;49.858;8.768;2023-07-22T08:26:38;99146.19;;;23.31;38.15
6506;BME280;3286;49.858;8.768;2023-07-22T08:29:04;99143.28;;;24.14;36.28
6506;BME280;3286;49.858;8.768;2023-07-22T08:31:32;99147.03;;;23.72;37.19
6506;BME280;3286;49.858;8.768;2023-07-22T08:33:59;99143.84;;;21.39;40.44
6506;BME280;3286;49.858;8.768;2023-07-22T08:36:26;99144.25;;;22.41;38.50
6506;BME280;3286;49.858;8.768;2023-07-22T08:38:52;99149.78;;;22.16;39.37
6506;BME280;3286;49.858;8.768;2023-07-22T08:41:19;99134.53;;;24.07;35.76
6506;BME280;3286;49.858;8.768;2023-07-22T08:43:48;99142.22;;;21.75;39.52
6506;BME280;3286;49.858;8.768;2023-07-22T08:46:19;99139.16;;;23.29;38.00
6506;BME280;3286;49.858;8.768;2023-07-22T08:48:49;99136.16;;;24.08;37.61
6506;BME280;3286;49.858;8.768;2023-07-22T08:51:19;99127.41;;;24.98;33.53
6506;BME280;3286;49.858;8.768;2023-07-22T08:53:47;99126.41;;;25.21;33.88
6506;BME280;3286;49.858;8.768;2023-07-22T08:56:13;99115.75;;;25.31;31.99
6506;BME280;3286;49.858;8.768;2023-07-22T08:58:42;99122.38;;;24.84;34.11
6506;BME280;3286;49.858;8.768;2023-07-22T09:01:08;99123.00;;;25.93;32.49
6506;BME280;3286;49.858;8.768;2023-07-22T09:03:36;99113.25;;;25.47;33.41
6506;BME280;3286;49.858;8.768;2023-07-22T09:06:07;99116.75;;;24.40;34.94
6506;BME280;3286;49.858;8.768;2023-07-22T09:08:34;99129.22;;;23.71;36.36
6506;BME280;3286;49.858;8.768;2023-07-22T09:11:01;99127.38;;;25.32;33.45
6506;BME280;3286;49.858;8.768;2023-07-22T09:13:28;99120.34;;;25.14;33.07
6506;BME280;3286;49.858;8.768;2023-07-22T09:15:57;99109.13;;;25.89;32.63
6506;BME280;3286;49.858;8.768;2023-07-22T09:18:23;99119.97;;;26.11;32.51
6506;BME280;3286;49.858;8.768;2023-07-22T09:20:50;99112.72;;;25.95;33.02
6506;BME280;3286;49.858;8.768;2023-07-22T09:23:31;99110.06;;;26.00;31.85
6506;BME280;3286;49.858;8.768;2023-07-22T09:26:08;99114.47;;;25.00;33.58
6506;BME280;3286;49.858;8.768;2023-07-22T09:28:47;99116.13;;;25.01;30.28
6506;BME280;3286;49.858;8.768;2023-07-22T09:31:14;99113.63;;;23.73;33.77
6506;BME280;3286;49.858;8.768;2023-07-22T09:33:40;99123.53;;;22.29;35.08
6506;BME280;3286;49.858;8.768;2023-07-22T09:36:09;99112.06;;;23.12;33.78
6506;BME280;3286;49.858;8.768;2023-07-22T09:38:38;99120.03;;;23.43;34.46
6506;BME280;3286;49.858;8.768;2023-07-22T09:41:04;99118.84;;;23.51;34.67
6506;BME280;3286;49.858;8.768;2023-07-22T09:43:31;99125.03;;;22.68;32.95
6506;BME280;3286;49.858;8.768;2023-07-22T09:46:06;99120.84;;;22.72;34.39
6506;BME280;3286;49.858;8.768;2023-07-22T09:48:39;99117.69;;;23.76;33.05
6506;BME280;3286;49.858;8.768;2023-07-22T09:51:06;99102.72;;;23.97;31.31
6506;BME280;3286;49.858;8.768;2023-07-22T09:53:44;99104.59;;;25.28;30.53
6506;BME280;3286;49.858;8.768;2023-07-22T09:56:10;99093.38;;;24.97;32.05
6506;BME280;3286;49.858;8.768;2023-07-22T09:58:38;99097.78;;;25.65;30.87
6506;BME280;3286;49.858;8.768;2023-07-22T10:01:07;99095.69;;;25.50;32.11
6506;BME280;3286;49.858;8.768;2023-07-22T10:03:36;99113.00;;;22.82;33.60
6506;BME280;3286;49.858;8.768;2023-07-22T10:06:05;99093.78;;;24.54;31.10
6506;BME280;3286;49.858;8.768;2023-07-22T10:08:34;99093.75;;;24.37;31.39
6506;BME280;3286;49.858;8.768;2023-07-22T10:11:05;99108.75;;;23.46;32.80
6506;BME280;3286;49.858;8.768;2023-07-22T10:13:32;99100.34;;;23.31;33.95
6506;BME280;3286;49.858;8.768;2023-07-22T10:16:00;99094.31;;;23.93;33.87
6506;BME280;3286;49.858;8.768;2023-07-22T10:18:27;99097.53;;;22.90;34.00
6506;BME280;3286;49.858;8.768;2023-07-22T10:20:55;99093.16;;;24.18;31.78
6506;BME280;3286;49.858;8.768;2023-07-22T10:23:25;99093.31;;;23.82;32.87
6506;BME280;3286;49.858;8.768;2023-07-22T10:25:52;99095.19;;;23.41;33.77
6506;BME280;3286;49.858;8.768;2023-07-22T10:28:21;99085.25;;;24.97;31.69
6506;BME280;3286;49.858;8.768;2023-07-22T10:30:49;99090.03;;;24.90;32.03
6506;BME280;3286;49.858;8.768;2023-07-22T10:33:16;99091.50;;;24.80;32.38
6506;BME280;3286;49.858;8.768;2023-07-22T10:36:01;99097.13;;;23.57;33.68
6506;BME280;3286;49.858;8.768;2023-07-22T10:38:28;99087.88;;;23.94;32.94
6506;BME280;3286;49.858;8.768;2023-07-22T10:40:55;99088.38;;;23.79;34.18
6506;BME280;3286;49.858;8.768;2023-07-22T10:43:26;99086.53;;;23.97;34.12
6506;BME280;3286;49.858;8.768;2023-07-22T10:45:54;99080.66;;;24.12;33.73
6506;BME280;3286;49.858;8.768;2023-07-22T10:48:23;99087.75;;;24.81;33.55
6506;BME280;3286;49.858;8.768;2023-07-22T10:50:52;99081.09;;;24.38;33.79
6506;BME280;3286;49.858;8.768;2023-07-22T10:53:28;99074.53;;;24.68;33.38
6506;BME280;3286;49.858;8.768;2023-07-22T10:56:13;99070.97;;;25.41;32.11
6506;BME280;3286;49.858;8.768;2023-07-22T10:59:00;99062.94;;;26.23;32.28
6506;BME280;3286;49.858;8.768;2023-07-22T11:01:33;99073.72;;;25.91;32.92
6506;BME280;3286;49.858;8.768;2023-07-22T11:04:12;99081.84;;;22.98;36.34
6506;BME280;3286;49.858;8.768;2023-07-22T11:06:51;99075.81;;;24.77;33.07
6506;BME280;3286;49.858;8.768;2023-07-22T11:09:43;99063.09;;;25.17;32.89
6506;BME280;3286;49.858;8.768;2023-07-22T11:12:13;99062.09;;;25.23;32.88
6506;BME280;3286;49.858;8.768;2023-07-22T11:14:48;99062.47;;;25.32;32.14
6506;BME280;3286;49.858;8.768;2023-07-22T11:17:15;99063.03;;;25.12;32.31
6506;BME280;3286;49.858;8.768;2023-07-22T11:19:43;99054.25;;;25.44;32.33
6506;BME280;3286;49.858;8.768;2023-07-22T11:22:10;99059.16;;;24.85;33.45
6506;BME280;3286;49.858;8.768;2023-07-22T11:24:37;99051.44;;;25.11;31.86
6506;BME280;3286;49.858;8.768;2023-07-22T11:27:05;99045.19;;;25.33;31.96
6506;BME280;3286;49.858;8.768;2023-07-22T11:29:33;99042.47;;;25.78;31.47
6506;BME280;3286;49.858;8.768;2023-07-22T11:32:03;99041.63;;;25.99;31.34
6506;BME280;3286;49.858;8.768;2023-07-22T11:34:30;99041.25;;;26.18;30.31
6506;BME280;3286;49.858;8.768;2023-07-22T11:36:56;99044.00;;;25.24;31.49
6506;BME280;3286;49.858;8.768;2023-07-22T11:39:25;99035.38;;;25.71;30.58
6506;BME280;3286;49.858;8.768;2023-07-22T11:41:53;99029.97;;;25.27;31.49
6506;BME280;3286;49.858;8.768;2023-07-22T11:44:21;99033.13;;;25.91;30.74
6506;BME280;3286;49.858;8.768;2023-07-22T11:46:51;99031.66;;;26.10;30.38
6506;BME280;3286;49.858;8.768;2023-07-22T11:49:27;99031.97;;;25.81;30.99
6506;BME280;3286;49.858;8.768;2023-07-22T11:51:55;99019.22;;;25.32;31.35
6506;BME280;3286;49.858;8.768;2023-07-22T11:54:22;99015.72;;;26.09;30.58
6506;BME280;3286;49.858;8.768;2023-07-22T11:56:49;99017.28;;;26.32;29.42
6506;BME280;3286;49.858;8.768;2023-07-22T11:59:16;99010.75;;;26.28;29.70
6506;BME280;3286;49.858;8.768;2023-07-22T12:01:44;99017.03;;;26.76;29.69
6506;BME280;3286;49.858;8.768;2023-07-22T12:04:12;99009.75;;;26.82;29.50
6506;BME280;3286;49.858;8.768;2023-07-22T12:06:41;99007.84;;;27.41;28.47
6506;BME280;3286;49.858;8.768;2023-07-22T12:09:09;98992.50;;;27.88;27.32
6506;BME280;3286;49.858;8.768;2023-07-22T12:11:36;98993.84;;;27.70;28.50
6506;BME280;3286;49.858;8.768;2023-07-22T12:14:10;98996.13;;;27.20;29.10
6506;BME280;3286;49.858;8.768;2023-07-22T12:16:37;98985.19;;;27.99;28.36
6506;BME280;3286;49.858;8.768;2023-07-22T12:19:05;98986.50;;;27.60;28.81
6506;BME280;3286;49.858;8.768;2023-07-22T12:21:32;98987.03;;;26.88;28.55
6506;BME280;3286;49.858;8.768;2023-07-22T12:24:01;98995.44;;;26.92;28.64
6506;BME280;3286;49.858;8.768;2023-07-22T12:26:29;98980.41;;;26.26;29.40
6506;BME280;3286;49.858;8.768;2023-07-22T12:28:56;98984.81;;;26.80;28.99
6506;BME280;3286;49.858;8.768;2023-07-22T12:31:22;98978.44;;;27.02;27.95
6506;BME280;3286;49.858;8.768;2023-07-22T12:33:49;98976.22;;;26.88;28.19
6506;BME280;3286;49.858;8.768;2023-07-22T12:36:16;98967.78;;;26.85;28.54
6506;BME280;3286;49.858;8.768;2023-07-22T12:38:42;98971.16;;;27.18;28.04
6506;BME280;3286;49.858;8.768;2023-07-22T12:41:10;98973.50;;;27.78;27.02
6506;BME280;3286;49.858;8.768;2023-07-22T12:43:37;98956.41;;;28.29;26.64
6506;BME280;3286;49.858;8.768;2023-07-22T12:46:04;98962.91;;;28.13;26.63
6506;BME280;3286;49.858;8.768;2023-07-22T12:48:31;98960.41;;;27.49;27.36
6506;BME280;3286;49.858;8.768;2023-07-22T12:50:58;98966.69;;;26.05;29.65
6506;BME280;3286;49.858;8.768;2023-07-22T12:53:25;98959.06;;;25.42;31.08
6506;BME280;3286;49.858;8.768;2023-07-22T12:55:51;98949.19;;;25.08;31.46
6506;BME280;3286;49.858;8.768;2023-07-22T12:58:19;98962.75;;;25.85;30.32
6506;BME280;3286;49.858;8.768;2023-07-22T13:00:46;98951.78;;;26.35;29.90
6506;BME280;3286;49.858;8.768;2023-07-22T13:03:13;98944.00;;;26.49;29.55
6506;BME280;3286;49.858;8.768;2023-07-22T13:05:40;98943.88;;;26.76;28.87
6506;BME280;3286;49.858;8.768;2023-07-22T13:08:06;98937.06;;;27.43;27.48
6506;BME280;3286;49.858;8.768;2023-07-22T13:10:33;98940.75;;;26.47;29.56
6506;BME280;3286;49.858;8.768;2023-07-22T13:13:02;98934.38;;;26.74;29.74
6506;BME280;3286;49.858;8.768;2023-07-22T13:15:30;98932.22;;;27.55;29.83
6506;BME280;3286;49.858;8.768;2023-07-22T13:17:57;98935.03;;;26.97;28.90
6506;BME280;3286;49.858;8.768;2023-07-22T13:20:24;98928.00;;;26.47;29.14
6506;BME280;3286;49.858;8.768;2023-07-22T13:22:50;98925.94;;;27.29;27.65
6506;BME280;3286;49.858;8.768;2023-07-22T13:25:17;98935.09;;;27.12;27.04